Archival Weather

Chicago O'Hare International

Chicago, Illinois (KORD)

Report from: Saturday, June 18, 2022 8:51 AM CDT
Current time: Monday, August 15, 2022 7:39 PM CDT

Current weather
Weather history
Weather forecast

Temperature18.3°C (64.9°F)
Dew point7.8°C (46.0°F)
Winds 9 kts (4.6 m/s, 10.4 mph) North (10°)
Visibility10 mi. (16.1 km)
Clouds Sky clear
Altimeter30.26 in.Hg (1025 mB)
Relative humidity50 %
Density altitude155 ft. (47 m)
Sea-level pressure102.4 kPa (1024 mB, 30.24 in.Hg)
Remarks System requires maintenance
Automated weather observing station with precipitation discriminator
Flight conditions Visual Meteorological Conditions
Raw dataKORD 181351Z 01009KT 10SM CLR 18/08 A3026 RMK AO2 SLP242 T01830078 $
An error has occurred. This application may no longer respond until reloaded. Reload 🗙